sensor_id;sensor_type;location;lat;lon;timestamp;pressure;altitude;pressure_sealevel;temperature;humidity
9740;BME280;4909;42.680;26.324;2023-02-13T00:00:57;100497.25;;;4.13;58.35
9740;BME280;4909;42.680;26.324;2023-02-13T00:03:24;100493.88;;;4.23;58.50
9740;BME280;4909;42.680;26.324;2023-02-13T00:05:50;100478.94;;;4.19;57.81
9740;BME280;4909;42.680;26.324;2023-02-13T00:08:17;100490.50;;;4.37;56.60
9740;BME280;4909;42.680;26.324;2023-02-13T00:10:44;100498.16;;;4.13;56.28
9740;BME280;4909;42.680;26.324;2023-02-13T00:13:10;100499.03;;;4.14;56.30
9740;BME280;4909;42.680;26.324;2023-02-13T00:15:39;100499.16;;;4.24;56.42
9740;BME280;4909;42.680;26.324;2023-02-13T00:18:05;100508.97;;;4.42;55.64
9740;BME280;4909;42.680;26.324;2023-02-13T00:20:32;100506.38;;;4.47;55.31
9740;BME280;4909;42.680;26.324;2023-02-13T00:22:59;100505.34;;;4.31;55.39
9740;BME280;4909;42.680;26.324;2023-02-13T00:25:26;100509.75;;;4.33;55.71
9740;BME280;4909;42.680;26.324;2023-02-13T00:27:53;100509.03;;;4.48;55.62
9740;BME280;4909;42.680;26.324;2023-02-13T00:30:20;100521.91;;;4.24;56.22
9740;BME280;4909;42.680;26.324;2023-02-13T00:32:50;100515.81;;;4.25;56.44
9740;BME280;4909;42.680;26.324;2023-02-13T00:35:17;100517.34;;;4.08;57.05
9740;BME280;4909;42.680;26.324;2023-02-13T00:37:43;100518.94;;;3.92;58.01
9740;BME280;4909;42.680;26.324;2023-02-13T00:40:11;100515.47;;;3.98;57.97
9740;BME280;4909;42.680;26.324;2023-02-13T00:42:38;100519.44;;;3.65;59.95
9740;BME280;4909;42.680;26.324;2023-02-13T00:45:05;100518.06;;;3.94;58.96
9740;BME280;4909;42.680;26.324;2023-02-13T00:47:31;100525.38;;;4.21;57.97
9740;BME280;4909;42.680;26.324;2023-02-13T00:50:00;100523.63;;;4.22;57.16
9740;BME280;4909;42.680;26.324;2023-02-13T00:52:26;100526.22;;;4.17;56.89
9740;BME280;4909;42.680;26.324;2023-02-13T00:54:53;100499.75;;;4.01;57.14
9740;BME280;4909;42.680;26.324;2023-02-13T00:57:20;100509.63;;;4.23;56.72
9740;BME280;4909;42.680;26.324;2023-02-13T00:59:47;100508.41;;;3.93;58.04
9740;BME280;4909;42.680;26.324;2023-02-13T01:02:13;100511.91;;;3.91;58.11
9740;BME280;4909;42.680;26.324;2023-02-13T01:04:40;100514.44;;;3.82;58.61
9740;BME280;4909;42.680;26.324;2023-02-13T01:07:08;100503.09;;;3.87;58.95
9740;BME280;4909;42.680;26.324;2023-02-13T01:09:35;100500.34;;;3.77;57.87
9740;BME280;4909;42.680;26.324;2023-02-13T01:12:02;100507.72;;;3.40;59.26
9740;BME280;4909;42.680;26.324;2023-02-13T01:14:29;100511.28;;;3.42;59.26
9740;BME280;4909;42.680;26.324;2023-02-13T01:16:55;100499.41;;;3.73;58.23
9740;BME280;4909;42.680;26.324;2023-02-13T01:19:22;100514.44;;;3.85;57.52
9740;BME280;4909;42.680;26.324;2023-02-13T01:21:49;100476.56;;;3.66;58.17
9740;BME280;4909;42.680;26.324;2023-02-13T01:24:17;100513.41;;;3.71;58.42
9740;BME280;4909;42.680;26.324;2023-02-13T01:26:44;100503.72;;;3.67;59.21
9740;BME280;4909;42.680;26.324;2023-02-13T01:29:11;100516.81;;;3.65;58.63
9740;BME280;4909;42.680;26.324;2023-02-13T01:31:38;100524.13;;;3.24;60.16
9740;BME280;4909;42.680;26.324;2023-02-13T01:34:05;100530.41;;;3.35;59.99
9740;BME280;4909;42.680;26.324;2023-02-13T01:36:32;100521.31;;;3.72;60.05
9740;BME280;4909;42.680;26.324;2023-02-13T01:38:59;100515.53;;;4.02;57.73
9740;BME280;4909;42.680;26.324;2023-02-13T01:41:27;100518.34;;;4.19;57.45
9740;BME280;4909;42.680;26.324;2023-02-13T01:43:55;100528.06;;;4.24;57.30
9740;BME280;4909;42.680;26.324;2023-02-13T01:46:26;100516.75;;;4.33;56.84
9740;BME280;4909;42.680;26.324;2023-02-13T01:48:57;100522.72;;;4.18;57.34
9740;BME280;4909;42.680;26.324;2023-02-13T01:51:27;100520.06;;;4.14;56.76
9740;BME280;4909;42.680;26.324;2023-02-13T01:53:59;100519.97;;;4.08;57.74
9740;BME280;4909;42.680;26.324;2023-02-13T01:56:31;100518.88;;;3.89;57.84
9740;BME280;4909;42.680;26.324;2023-02-13T01:59:02;100518.72;;;3.78;58.78
9740;BME280;4909;42.680;26.324;2023-02-13T02:01:30;100520.53;;;3.81;58.62
9740;BME280;4909;42.680;26.324;2023-02-13T02:04:00;100517.97;;;3.85;58.90
9740;BME280;4909;42.680;26.324;2023-02-13T02:06:33;100515.56;;;4.04;58.31
9740;BME280;4909;42.680;26.324;2023-02-13T02:09:09;100519.19;;;4.15;57.31
9740;BME280;4909;42.680;26.324;2023-02-13T02:11:43;100522.72;;;4.18;56.42
9740;BME280;4909;42.680;26.324;2023-02-13T02:14:12;100517.50;;;4.20;56.75
9740;BME280;4909;42.680;26.324;2023-02-13T02:16:39;100519.09;;;4.06;56.86
9740;BME280;4909;42.680;26.324;2023-02-13T02:19:24;100518.16;;;4.01;57.08
9740;BME280;4909;42.680;26.324;2023-02-13T02:22:18;100532.31;;;4.13;57.19
9740;BME280;4909;42.680;26.324;2023-02-13T02:28:23;100528.09;;;4.26;56.49
9740;BME280;4909;42.680;26.324;2023-02-13T02:31:39;100533.50;;;4.43;55.09
9740;BME280;4909;42.680;26.324;2023-02-13T02:34:13;100533.06;;;4.02;56.52
9740;BME280;4909;42.680;26.324;2023-02-13T02:36:56;100535.97;;;4.26;56.33
9740;BME280;4909;42.680;26.324;2023-02-13T02:39:38;100540.44;;;4.36;55.53
9740;BME280;4909;42.680;26.324;2023-02-13T02:42:16;100544.47;;;4.04;56.46
9740;BME280;4909;42.680;26.324;2023-02-13T02:44:53;100544.56;;;4.13;56.17
9740;BME280;4909;42.680;26.324;2023-02-13T02:47:24;100545.53;;;4.22;55.45
9740;BME280;4909;42.680;26.324;2023-02-13T02:50:25;100544.63;;;4.17;55.81
9740;BME280;4909;42.680;26.324;2023-02-13T02:53:09;100547.22;;;4.14;56.14
9740;BME280;4909;42.680;26.324;2023-02-13T02:55:45;100554.13;;;4.06;56.26
9740;BME280;4909;42.680;26.324;2023-02-13T02:58:19;100558.81;;;4.33;55.42
9740;BME280;4909;42.680;26.324;2023-02-13T03:01:07;100557.03;;;4.32;55.44
9740;BME280;4909;42.680;26.324;2023-02-13T03:03:56;100560.63;;;4.35;55.51
9740;BME280;4909;42.680;26.324;2023-02-13T03:06:45;100557.81;;;4.20;56.07
9740;BME280;4909;42.680;26.324;2023-02-13T03:09:20;100552.59;;;4.25;56.40
9740;BME280;4909;42.680;26.324;2023-02-13T03:12:07;100544.97;;;4.51;55.81
9740;BME280;4909;42.680;26.324;2023-02-13T03:14:51;100553.97;;;4.69;54.87
9740;BME280;4909;42.680;26.324;2023-02-13T03:17:18;100549.97;;;4.25;55.81
9740;BME280;4909;42.680;26.324;2023-02-13T03:20:27;100548.03;;;4.12;57.35
9740;BME280;4909;42.680;26.324;2023-02-13T03:23:22;100541.41;;;4.43;56.78
9740;BME280;4909;42.680;26.324;2023-02-13T03:26:08;100542.44;;;4.58;55.02
9740;BME280;4909;42.680;26.324;2023-02-13T03:28:41;100544.13;;;4.50;55.89
9740;BME280;4909;42.680;26.324;2023-02-13T03:31:33;100542.25;;;4.42;55.04
9740;BME280;4909;42.680;26.324;2023-02-13T03:34:05;100549.38;;;4.50;54.42
9740;BME280;4909;42.680;26.324;2023-02-13T03:36:47;100535.44;;;4.59;54.04
9740;BME280;4909;42.680;26.324;2023-02-13T03:39:43;100550.50;;;4.79;53.18
9740;BME280;4909;42.680;26.324;2023-02-13T03:42:18;100540.09;;;4.90;52.57
9740;BME280;4909;42.680;26.324;2023-02-13T03:44:50;100504.97;;;4.82;52.27
9740;BME280;4909;42.680;26.324;2023-02-13T03:47:39;100544.22;;;4.62;51.99
9740;BME280;4909;42.680;26.324;2023-02-13T03:50:08;100545.06;;;4.58;52.87
9740;BME280;4909;42.680;26.324;2023-02-13T03:52:42;100539.66;;;4.46;53.11
9740;BME280;4909;42.680;26.324;2023-02-13T03:55:13;100544.13;;;4.50;53.13
9740;BME280;4909;42.680;26.324;2023-02-13T03:58:06;100533.41;;;4.33;54.14
9740;BME280;4909;42.680;26.324;2023-02-13T04:00:55;100530.84;;;4.41;53.98
9740;BME280;4909;42.680;26.324;2023-02-13T04:03:27;100524.72;;;4.42;53.53
9740;BME280;4909;42.680;26.324;2023-02-13T04:06:01;100532.19;;;4.04;53.87
9740;BME280;4909;42.680;26.324;2023-02-13T04:08:31;100508.22;;;3.78;54.34
9740;BME280;4909;42.680;26.324;2023-02-13T04:11:05;100533.34;;;4.27;53.99
9740;BME280;4909;42.680;26.324;2023-02-13T04:13:34;100544.00;;;4.41;53.03
9740;BME280;4909;42.680;26.324;2023-02-13T04:16:09;100541.16;;;4.21;54.42
9740;BME280;4909;42.680;26.324;2023-02-13T04:18:37;100545.31;;;4.01;54.46
9740;BME280;4909;42.680;26.324;2023-02-13T04:21:06;100544.25;;;3.87;55.41
9740;BME280;4909;42.680;26.324;2023-02-13T04:23:34;100551.31;;;3.92;55.69
9740;BME280;4909;42.680;26.324;2023-02-13T04:26:05;100553.97;;;3.94;55.93
9740;BME280;4909;42.680;26.324;2023-02-13T04:28:32;100570.47;;;3.84;54.88
9740;BME280;4909;42.680;26.324;2023-02-13T04:30:59;100560.09;;;3.94;54.04
9740;BME280;4909;42.680;26.324;2023-02-13T04:33:28;100562.56;;;3.81;54.75
9740;BME280;4909;42.680;26.324;2023-02-13T04:35:55;100552.88;;;3.77;55.06
9740;BME280;4909;42.680;26.324;2023-02-13T04:38:22;100557.50;;;3.98;54.62
9740;BME280;4909;42.680;26.324;2023-02-13T04:40:50;100553.25;;;4.06;54.70
9740;BME280;4909;42.680;26.324;2023-02-13T04:43:17;100552.41;;;4.10;54.27
9740;BME280;4909;42.680;26.324;2023-02-13T04:45:47;100547.97;;;4.04;54.35
9740;BME280;4909;42.680;26.324;2023-02-13T04:48:13;100552.59;;;4.25;52.96
9740;BME280;4909;42.680;26.324;2023-02-13T04:50:40;100550.88;;;4.28;51.74
9740;BME280;4909;42.680;26.324;2023-02-13T04:53:07;100555.13;;;4.17;51.58
9740;BME280;4909;42.680;26.324;2023-02-13T04:55:34;100559.19;;;3.92;51.81
9740;BME280;4909;42.680;26.324;2023-02-13T04:58:02;100565.78;;;3.62;52.92
9740;BME280;4909;42.680;26.324;2023-02-13T05:00:29;100563.25;;;3.69;53.01
9740;BME280;4909;42.680;26.324;2023-02-13T05:03:00;100559.00;;;3.76;53.45
9740;BME280;4909;42.680;26.324;2023-02-13T05:05:29;100573.91;;;3.78;53.49
9740;BME280;4909;42.680;26.324;2023-02-13T05:07:56;100572.72;;;3.57;54.26
9740;BME280;4909;42.680;26.324;2023-02-13T05:10:23;100572.41;;;3.35;54.55
9740;BME280;4909;42.680;26.324;2023-02-13T05:12:49;100575.16;;;3.43;54.65
9740;BME280;4909;42.680;26.324;2023-02-13T05:15:17;100543.38;;;3.26;54.50
9740;BME280;4909;42.680;26.324;2023-02-13T05:17:45;100566.44;;;3.45;54.96
9740;BME280;4909;42.680;26.324;2023-02-13T05:20:12;100586.13;;;3.76;53.78
9740;BME280;4909;42.680;26.324;2023-02-13T05:22:43;100579.13;;;3.75;53.98
9740;BME280;4909;42.680;26.324;2023-02-13T05:25:27;100583.59;;;3.84;52.60
9740;BME280;4909;42.680;26.324;2023-02-13T05:27:53;100587.25;;;3.93;52.83
9740;BME280;4909;42.680;26.324;2023-02-13T05:30:22;100581.88;;;3.87;52.98
9740;BME280;4909;42.680;26.324;2023-02-13T05:32:48;100588.03;;;3.86;52.67
9740;BME280;4909;42.680;26.324;2023-02-13T05:35:16;100597.53;;;3.77;52.83
9740;BME280;4909;42.680;26.324;2023-02-13T05:37:43;100592.03;;;3.04;54.67
9740;BME280;4909;42.680;26.324;2023-02-13T05:40:12;100580.09;;;3.23;54.71
9740;BME280;4909;42.680;26.324;2023-02-13T05:42:39;100604.09;;;3.49;53.86
9740;BME280;4909;42.680;26.324;2023-02-13T05:45:07;100591.63;;;3.33;54.24
9740;BME280;4909;42.680;26.324;2023-02-13T05:47:36;100599.47;;;3.31;54.89
9740;BME280;4909;42.680;26.324;2023-02-13T05:50:03;100596.63;;;3.18;55.36
9740;BME280;4909;42.680;26.324;2023-02-13T05:52:30;100600.63;;;3.48;54.80
9740;BME280;4909;42.680;26.324;2023-02-13T05:54:56;100601.34;;;3.40;55.04
9740;BME280;4909;42.680;26.324;2023-02-13T05:57:23;100605.69;;;3.38;55.46
9740;BME280;4909;42.680;26.324;2023-02-13T05:59:50;100599.28;;;3.21;55.64
9740;BME280;4909;42.680;26.324;2023-02-13T06:02:17;100602.44;;;3.54;54.92
9740;BME280;4909;42.680;26.324;2023-02-13T06:04:45;100597.56;;;4.51;51.97
9740;BME280;4909;42.680;26.324;2023-02-13T06:07:12;100607.28;;;5.51;48.88
9740;BME280;4909;42.680;26.324;2023-02-13T06:09:39;100608.88;;;7.11;44.36
9740;BME280;4909;42.680;26.324;2023-02-13T06:12:05;100611.22;;;8.60;40.08
9740;BME280;4909;42.680;26.324;2023-02-13T06:14:32;100604.16;;;9.73;37.37
9740;BME280;4909;42.680;26.324;2023-02-13T06:17:00;100612.50;;;10.25;35.66
9740;BME280;4909;42.680;26.324;2023-02-13T06:19:26;100610.38;;;10.53;35.02
9740;BME280;4909;42.680;26.324;2023-02-13T06:21:55;100619.88;;;10.71;34.35
9740;BME280;4909;42.680;26.324;2023-02-13T06:24:21;100616.31;;;10.72;33.81
9740;BME280;4909;42.680;26.324;2023-02-13T06:26:49;100611.59;;;10.92;33.33
9740;BME280;4909;42.680;26.324;2023-02-13T06:29:16;100615.50;;;11.26;33.31
9740;BME280;4909;42.680;26.324;2023-02-13T06:31:43;100609.59;;;12.12;32.23
9740;BME280;4909;42.680;26.324;2023-02-13T06:34:11;100621.72;;;12.70;30.54
9740;BME280;4909;42.680;26.324;2023-02-13T06:36:38;100616.75;;;12.93;30.35
9740;BME280;4909;42.680;26.324;2023-02-13T06:39:09;100618.81;;;12.39;30.63
9740;BME280;4909;42.680;26.324;2023-02-13T06:41:36;100629.47;;;11.39;31.99
9740;BME280;4909;42.680;26.324;2023-02-13T06:44:02;100623.38;;;11.86;31.17
9740;BME280;4909;42.680;26.324;2023-02-13T06:46:29;100615.47;;;12.29;30.50
9740;BME280;4909;42.680;26.324;2023-02-13T06:48:56;100620.09;;;12.62;30.76
9740;BME280;4909;42.680;26.324;2023-02-13T06:51:23;100613.59;;;13.51;30.12
9740;BME280;4909;42.680;26.324;2023-02-13T06:53:49;100624.31;;;14.50;28.22
9740;BME280;4909;42.680;26.324;2023-02-13T06:56:18;100619.44;;;15.21;27.29
9740;BME280;4909;42.680;26.324;2023-02-13T06:58:44;100624.25;;;15.65;26.15
9740;BME280;4909;42.680;26.324;2023-02-13T07:01:11;100619.81;;;15.91;25.93
9740;BME280;4909;42.680;26.324;2023-02-13T07:03:38;100620.25;;;16.76;24.83
9740;BME280;4909;42.680;26.324;2023-02-13T07:06:05;100625.19;;;17.54;23.97
9740;BME280;4909;42.680;26.324;2023-02-13T07:08:32;100622.09;;;17.64;23.67
9740;BME280;4909;42.680;26.324;2023-02-13T07:10:58;100627.38;;;17.01;24.28
9740;BME280;4909;42.680;26.324;2023-02-13T07:13:26;100634.19;;;16.63;24.87
9740;BME280;4909;42.680;26.324;2023-02-13T07:15:53;100624.72;;;17.22;24.74
9740;BME280;4909;42.680;26.324;2023-02-13T07:18:22;100628.47;;;17.40;24.22
9740;BME280;4909;42.680;26.324;2023-02-13T07:20:49;100616.69;;;18.06;24.00
9740;BME280;4909;42.680;26.324;2023-02-13T07:23:15;100618.59;;;17.41;24.70
9740;BME280;4909;42.680;26.324;2023-02-13T07:25:42;100617.97;;;17.98;24.45
9740;BME280;4909;42.680;26.324;2023-02-13T07:28:09;100611.59;;;19.36;22.93
9740;BME280;4909;42.680;26.324;2023-02-13T07:30:37;100603.59;;;20.22;21.79
9740;BME280;4909;42.680;26.324;2023-02-13T07:33:04;100591.94;;;19.87;22.34
9740;BME280;4909;42.680;26.324;2023-02-13T07:35:31;100607.41;;;20.18;22.00
9740;BME280;4909;42.680;26.324;2023-02-13T07:38:00;100607.06;;;19.72;22.48
9740;BME280;4909;42.680;26.324;2023-02-13T07:40:27;100601.84;;;19.86;22.96
9740;BME280;4909;42.680;26.324;2023-02-13T07:42:53;100603.09;;;19.26;23.09
9740;BME280;4909;42.680;26.324;2023-02-13T07:45:20;100598.09;;;18.81;23.74
9740;BME280;4909;42.680;26.324;2023-02-13T07:47:53;100599.81;;;19.20;23.32
9740;BME280;4909;42.680;26.324;2023-02-13T07:50:20;100607.91;;;19.37;23.48
9740;BME280;4909;42.680;26.324;2023-02-13T07:52:52;100594.22;;;18.48;24.11
9740;BME280;4909;42.680;26.324;2023-02-13T07:55:19;100591.97;;;18.96;23.96
9740;BME280;4909;42.680;26.324;2023-02-13T07:57:46;100595.47;;;19.53;23.22
9740;BME280;4909;42.680;26.324;2023-02-13T08:00:14;100590.50;;;20.64;21.85
9740;BME280;4909;42.680;26.324;2023-02-13T08:02:41;100591.19;;;21.16;21.69
9740;BME280;4909;42.680;26.324;2023-02-13T08:05:09;100563.78;;;20.10;22.46
9740;BME280;4909;42.680;26.324;2023-02-13T08:07:36;100576.41;;;20.59;22.50
9740;BME280;4909;42.680;26.324;2023-02-13T08:10:06;100572.75;;;21.24;21.22
9740;BME280;4909;42.680;26.324;2023-02-13T08:13:01;100585.94;;;22.20;19.91
9740;BME280;4909;42.680;26.324;2023-02-13T08:15:28;100584.09;;;20.98;21.06
9740;BME280;4909;42.680;26.324;2023-02-13T08:17:55;100583.09;;;21.78;20.28
9740;BME280;4909;42.680;26.324;2023-02-13T08:20:23;100583.44;;;22.17;19.99
9740;BME280;4909;42.680;26.324;2023-02-13T08:22:50;100581.19;;;21.64;20.15
9740;BME280;4909;42.680;26.324;2023-02-13T08:25:17;100583.16;;;20.99;20.90
9740;BME280;4909;42.680;26.324;2023-02-13T08:27:44;100579.09;;;21.23;21.02
9740;BME280;4909;42.680;26.324;2023-02-13T08:30:12;100568.19;;;21.09;21.51
9740;BME280;4909;42.680;26.324;2023-02-13T08:32:39;100575.41;;;21.09;21.64
9740;BME280;4909;42.680;26.324;2023-02-13T08:35:06;100556.19;;;21.60;21.04
9740;BME280;4909;42.680;26.324;2023-02-13T08:37:34;100555.22;;;21.91;20.63
9740;BME280;4909;42.680;26.324;2023-02-13T08:40:01;100568.84;;;22.34;20.31
9740;BME280;4909;42.680;26.324;2023-02-13T08:42:28;100557.13;;;21.89;20.25
9740;BME280;4909;42.680;26.324;2023-02-13T08:44:55;100555.59;;;21.55;20.61
9740;BME280;4909;42.680;26.324;2023-02-13T08:47:22;100551.94;;;21.86;20.59
9740;BME280;4909;42.680;26.324;2023-02-13T08:49:48;100555.75;;;21.68;20.91
9740;BME280;4909;42.680;26.324;2023-02-13T08:52:15;100553.84;;;22.28;20.41
9740;BME280;4909;42.680;26.324;2023-02-13T08:54:43;100549.75;;;21.93;20.76
9740;BME280;4909;42.680;26.324;2023-02-13T08:57:10;100506.41;;;20.88;21.63
9740;BME280;4909;42.680;26.324;2023-02-13T08:59:37;100533.38;;;19.73;22.52
9740;BME280;4909;42.680;26.324;2023-02-13T09:02:03;100533.28;;;18.09;24.92
9740;BME280;4909;42.680;26.324;2023-02-13T09:04:30;100537.53;;;17.74;25.23
9740;BME280;4909;42.680;26.324;2023-02-13T09:06:57;100541.53;;;18.44;24.52
9740;BME280;4909;42.680;26.324;2023-02-13T09:09:24;100538.38;;;19.28;23.66
9740;BME280;4909;42.680;26.324;2023-02-13T09:11:52;100541.16;;;19.79;22.70
9740;BME280;4909;42.680;26.324;2023-02-13T09:14:22;100540.56;;;19.90;22.76
9740;BME280;4909;42.680;26.324;2023-02-13T09:16:49;100544.16;;;19.37;23.06
9740;BME280;4909;42.680;26.324;2023-02-13T09:19:15;100534.53;;;18.40;24.45
9740;BME280;4909;42.680;26.324;2023-02-13T09:21:42;100527.91;;;16.83;26.08
9740;BME280;4909;42.680;26.324;2023-02-13T09:24:09;100521.81;;;17.02;26.38
9740;BME280;4909;42.680;26.324;2023-02-13T09:26:36;100527.19;;;17.44;25.72
9740;BME280;4909;42.680;26.324;2023-02-13T09:29:04;100520.94;;;17.01;26.38
9740;BME280;4909;42.680;26.324;2023-02-13T09:31:31;100502.97;;;17.45;25.97
9740;BME280;4909;42.680;26.324;2023-02-13T09:33:58;100519.47;;;16.71;26.82
9740;BME280;4909;42.680;26.324;2023-02-13T09:36:25;100512.38;;;16.70;27.01
9740;BME280;4909;42.680;26.324;2023-02-13T09:38:53;100508.63;;;17.17;26.35
9740;BME280;4909;42.680;26.324;2023-02-13T09:41:22;100506.16;;;16.69;26.54
9740;BME280;4909;42.680;26.324;2023-02-13T09:43:52;100493.66;;;15.74;27.99
9740;BME280;4909;42.680;26.324;2023-02-13T09:46:24;100508.47;;;14.21;30.37
9740;BME280;4909;42.680;26.324;2023-02-13T09:48:55;100501.50;;;14.16;30.63
9740;BME280;4909;42.680;26.324;2023-02-13T09:51:22;100490.25;;;14.05;30.61
9740;BME280;4909;42.680;26.324;2023-02-13T09:53:52;100495.84;;;14.26;30.00
9740;BME280;4909;42.680;26.324;2023-02-13T09:56:26;100493.31;;;13.91;30.35
9740;BME280;4909;42.680;26.324;2023-02-13T09:59:01;100494.56;;;13.13;31.75
9740;BME280;4909;42.680;26.324;2023-02-13T10:01:32;100479.06;;;12.92;32.51
9740;BME280;4909;42.680;26.324;2023-02-13T10:04:23;100480.31;;;12.00;34.17
9740;BME280;4909;42.680;26.324;2023-02-13T10:06:59;100475.28;;;11.85;34.77
9740;BME280;4909;42.680;26.324;2023-02-13T10:09:32;100466.09;;;11.57;35.64
9740;BME280;4909;42.680;26.324;2023-02-13T10:12:24;100464.84;;;11.76;35.88
9740;BME280;4909;42.680;26.324;2023-02-13T10:15:06;100462.66;;;11.49;36.26
9740;BME280;4909;42.680;26.324;2023-02-13T10:17:38;100467.00;;;11.54;36.32
9740;BME280;4909;42.680;26.324;2023-02-13T10:20:20;100462.69;;;11.00;37.08
9740;BME280;4909;42.680;26.324;2023-02-13T10:22:51;100428.69;;;10.69;38.59
9740;BME280;4909;42.680;26.324;2023-02-13T10:25:23;100433.44;;;11.01;37.94
9740;BME280;4909;42.680;26.324;2023-02-13T10:27:54;100437.22;;;11.37;37.66
9740;BME280;4909;42.680;26.324;2023-02-13T10:30:27;100410.16;;;10.65;39.07
9740;BME280;4909;42.680;26.324;2023-02-13T10:32:59;100445.03;;;10.42;39.83
9740;BME280;4909;42.680;26.324;2023-02-13T10:35:51;100430.28;;;10.79;38.59
9740;BME280;4909;42.680;26.324;2023-02-13T10:38:21;100426.41;;;10.99;38.43
9740;BME280;4909;42.680;26.324;2023-02-13T10:41:12;100424.03;;;10.80;38.70
9740;BME280;4909;42.680;26.324;2023-02-13T10:43:51;100415.91;;;10.91;38.84
9740;BME280;4909;42.680;26.324;2023-02-13T10:46:25;100427.34;;;10.41;40.75
9740;BME280;4909;42.680;26.324;2023-02-13T10:49:16;100384.84;;;10.44;39.17
9740;BME280;4909;42.680;26.324;2023-02-13T10:51:52;100423.19;;;10.23;40.55
9740;BME280;4909;42.680;26.324;2023-02-13T10:54:30;100410.44;;;9.87;41.46
9740;BME280;4909;42.680;26.324;2023-02-13T10:57:08;100410.13;;;10.08;41.14
9740;BME280;4909;42.680;26.324;2023-02-13T11:02:30;100398.94;;;10.46;40.51
9740;BME280;4909;42.680;26.324;2023-02-13T11:05:01;100394.19;;;10.66;39.38
9740;BME280;4909;42.680;26.324;2023-02-13T11:07:29;100399.66;;;10.59;39.99
9740;BME280;4909;42.680;26.324;2023-02-13T11:09:59;100339.34;;;10.10;40.78
9740;BME280;4909;42.680;26.324;2023-02-13T11:12:30;100388.53;;;10.34;40.92
9740;BME280;4909;42.680;26.324;2023-02-13T11:15:01;100395.84;;;10.18;40.97
9740;BME280;4909;42.680;26.324;2023-02-13T11:17:30;100385.47;;;10.01;41.25
9740;BME280;4909;42.680;26.324;2023-02-13T11:20:00;100385.16;;;10.24;41.12
9740;BME280;4909;42.680;26.324;2023-02-13T11:22:31;100377.44;;;10.64;40.03
9740;BME280;4909;42.680;26.324;2023-02-13T11:25:01;100378.16;;;10.72;39.71
9740;BME280;4909;42.680;26.324;2023-02-13T11:27:32;100381.94;;;10.58;40.07
9740;BME280;4909;42.680;26.324;2023-02-13T11:30:01;100373.75;;;10.70;39.99
9740;BME280;4909;42.680;26.324;2023-02-13T11:32:31;100365.47;;;10.37;40.46
9740;BME280;4909;42.680;26.324;2023-02-13T11:35:20;100368.53;;;10.65;40.61
9740;BME280;4909;42.680;26.324;2023-02-13T11:38:10;100316.72;;;10.43;39.42
9740;BME280;4909;42.680;26.324;2023-02-13T11:40:37;100330.50;;;10.65;39.81
9740;BME280;4909;42.680;26.324;2023-02-13T11:43:06;100347.19;;;10.70;40.30
9740;BME280;4909;42.680;26.324;2023-02-13T11:45:34;100338.50;;;10.63;40.00
9740;BME280;4909;42.680;26.324;2023-02-13T11:48:07;100341.84;;;10.73;39.70
9740;BME280;4909;42.680;26.324;2023-02-13T11:50:42;100337.88;;;10.46;40.98
9740;BME280;4909;42.680;26.324;2023-02-13T11:53:17;100330.72;;;10.53;40.52
9740;BME280;4909;42.680;26.324;2023-02-13T11:56:01;100330.06;;;10.38;41.00
9740;BME280;4909;42.680;26.324;2023-02-13T11:58:28;100325.72;;;10.33;41.02
9740;BME280;4909;42.680;26.324;2023-02-13T12:04:04;100310.38;;;10.52;40.96
9740;BME280;4909;42.680;26.324;2023-02-13T12:06:33;100299.91;;;10.44;41.50
9740;BME280;4909;42.680;26.324;2023-02-13T12:09:10;100301.22;;;10.69;40.39
9740;BME280;4909;42.680;26.324;2023-02-13T12:11:43;100297.69;;;10.69;40.12
9740;BME280;4909;42.680;26.324;2023-02-13T12:14:15;100294.94;;;10.73;40.29
9740;BME280;4909;42.680;26.324;2023-02-13T12:16:46;100288.25;;;10.51;41.11
9740;BME280;4909;42.680;26.324;2023-02-13T12:19:19;100279.00;;;10.73;40.47
9740;BME280;4909;42.680;26.324;2023-02-13T12:22:11;100280.72;;;10.27;41.12
9740;BME280;4909;42.680;26.324;2023-02-13T12:25:00;100280.25;;;10.53;41.13
9740;BME280;4909;42.680;26.324;2023-02-13T12:27:38;100279.41;;;10.51;41.30
9740;BME280;4909;42.680;26.324;2023-02-13T12:30:29;100283.50;;;10.68;41.37
9740;BME280;4909;42.680;26.324;2023-02-13T12:33:13;100252.72;;;10.58;40.78
9740;BME280;4909;42.680;26.324;2023-02-13T12:35:47;100274.09;;;10.51;41.61
9740;BME280;4909;42.680;26.324;2023-02-13T12:38:29;100260.28;;;10.32;42.06
9740;BME280;4909;42.680;26.324;2023-02-13T12:41:15;100274.75;;;10.63;41.34
9740;BME280;4909;42.680;26.324;2023-02-13T12:46:51;100270.00;;;10.31;42.40
9740;BME280;4909;42.680;26.324;2023-02-13T12:49:33;100256.47;;;10.46;41.92
9740;BME280;4909;42.680;26.324;2023-02-13T12:52:13;100261.41;;;10.68;41.64
9740;BME280;4909;42.680;26.324;2023-02-13T12:54:57;100258.56;;;10.75;41.61
9740;BME280;4909;42.680;26.324;2023-02-13T12:57:42;100264.53;;;10.88;41.08
9740;BME280;4909;42.680;26.324;2023-02-13T13:00:23;100259.22;;;10.88;40.95
9740;BME280;4909;42.680;26.324;2023-02-13T13:03:32;100264.84;;;10.71;41.28
9740;BME280;4909;42.680;26.324;2023-02-13T13:06:26;100255.19;;;10.67;41.50
9740;BME280;4909;42.680;26.324;2023-02-13T13:09:09;100251.84;;;10.59;41.70
9740;BME280;4909;42.680;26.324;2023-02-13T13:12:03;100246.78;;;10.45;41.83
9740;BME280;4909;42.680;26.324;2023-02-13T13:14:39;100256.47;;;10.46;42.10
9740;BME280;4909;42.680;26.324;2023-02-13T13:17:15;100249.22;;;10.56;41.81
9740;BME280;4909;42.680;26.324;2023-02-13T13:19:51;100250.28;;;10.46;42.41
9740;BME280;4909;42.680;26.324;2023-02-13T13:22:24;100232.56;;;10.46;42.61
9740;BME280;4909;42.680;26.324;2023-02-13T13:25:01;100209.63;;;10.44;42.12
9740;BME280;4909;42.680;26.324;2023-02-13T13:27:34;100214.00;;;10.46;42.00
9740;BME280;4909;42.680;26.324;2023-02-13T13:30:04;100243.53;;;10.30;42.48
9740;BME280;4909;42.680;26.324;2023-02-13T13:32:32;100251.25;;;10.42;42.67
9740;BME280;4909;42.680;26.324;2023-02-13T13:35:00;100241.34;;;10.52;42.09
9740;BME280;4909;42.680;26.324;2023-02-13T13:37:30;100235.56;;;10.30;42.99
9740;BME280;4909;42.680;26.324;2023-02-13T13:40:08;100238.41;;;10.18;43.06
9740;BME280;4909;42.680;26.324;2023-02-13T13:42:50;100228.81;;;10.08;43.15